createdAt,value
2023-05-08T00:01:56.096Z,2.40
2023-05-08T00:04:58.820Z,2.70
2023-05-08T00:08:02.924Z,3.00
2023-05-08T00:11:05.697Z,2.60
2023-05-08T00:14:08.364Z,2.47
2023-05-08T00:17:11.002Z,2.50
2023-05-08T00:20:14.567Z,2.30
2023-05-08T00:23:18.690Z,2.50
2023-05-08T00:26:21.674Z,2.57
2023-05-08T00:29:24.263Z,2.60
2023-05-08T00:32:27.034Z,2.50
2023-05-08T00:35:29.829Z,2.70
2023-05-08T00:38:35.153Z,2.47
2023-05-08T00:41:38.011Z,2.30
2023-05-08T00:44:41.180Z,2.70
2023-05-08T00:47:44.035Z,2.70
2023-05-08T00:50:46.845Z,2.80
2023-05-08T00:53:51.095Z,2.73
2023-05-08T00:56:54.133Z,2.57
2023-05-08T00:59:57.452Z,2.53
2023-05-08T01:03:01.673Z,2.90
2023-05-08T01:06:06.473Z,2.47
2023-05-08T01:09:11.290Z,2.73
2023-05-08T01:12:21.495Z,2.90
2023-05-08T01:15:30.388Z,2.93
2023-05-08T01:18:38.012Z,3.37
2023-05-08T01:21:46.761Z,2.57
2023-05-08T01:25:33.835Z,3.10
2023-05-08T01:29:04.169Z,2.70
2023-05-08T01:32:15.302Z,2.90
2023-05-08T01:35:23.681Z,2.80
2023-05-08T01:38:31.885Z,2.70
2023-05-08T01:41:37.817Z,2.63
2023-05-08T01:44:45.202Z,2.60
2023-05-08T01:47:55.715Z,3.03
2023-05-08T01:51:05.198Z,3.00
2023-05-08T01:54:10.477Z,3.03
2023-05-08T01:57:14.840Z,2.97
2023-05-08T02:00:22.165Z,3.03
2023-05-08T02:03:27.465Z,2.97
2023-05-08T02:06:32.317Z,2.90
2023-05-08T02:09:35.896Z,3.27
2023-05-08T02:12:39.955Z,3.30
2023-05-08T02:15:43.480Z,3.17
2023-05-08T02:18:52.030Z,3.10
2023-05-08T02:21:58.163Z,3.07
2023-05-08T02:25:02.084Z,2.87
2023-05-08T02:28:07.003Z,3.20
2023-05-08T02:31:10.841Z,3.50
2023-05-08T02:34:15.215Z,3.10
2023-05-08T02:37:20.729Z,3.10
2023-05-08T02:40:26.223Z,2.90
2023-05-08T02:43:29.384Z,3.13
2023-05-08T02:46:45.363Z,3.33
2023-05-08T02:49:54.192Z,3.10
2023-05-08T02:53:04.636Z,2.93
2023-05-08T02:56:12.438Z,3.23
2023-05-08T02:59:20.045Z,3.37
2023-05-08T03:02:30.352Z,3.00
2023-05-08T03:05:38.270Z,3.23
2023-05-08T03:08:43.027Z,3.73
2023-05-08T03:11:50.414Z,3.37
2023-05-08T03:14:59.161Z,3.53
2023-05-08T03:18:04.869Z,3.57
2023-05-08T03:21:10.752Z,3.30
2023-05-08T03:24:19.050Z,3.20
2023-05-08T03:27:22.525Z,2.93
2023-05-08T03:30:27.722Z,3.30
2023-05-08T03:33:31.584Z,3.47
2023-05-08T03:36:36.231Z,3.33
2023-05-08T03:39:38.836Z,3.40
2023-05-08T03:42:42.695Z,3.53
2023-05-08T03:45:45.938Z,3.10
2023-05-08T03:48:50.296Z,3.83
2023-05-08T03:51:55.770Z,3.33
2023-05-08T03:54:58.426Z,3.27
2023-05-08T03:58:06.885Z,3.23
2023-05-08T04:01:14.689Z,3.50
2023-05-08T04:04:19.933Z,3.30
2023-05-08T04:07:29.691Z,3.47
2023-05-08T04:10:35.919Z,3.20
2023-05-08T04:13:44.237Z,3.93
2023-05-08T04:16:50.879Z,3.43
2023-05-08T04:19:59.888Z,3.63
2023-05-08T04:23:05.474Z,3.90
2023-05-08T04:26:09.813Z,3.23
2023-05-08T04:29:12.543Z,3.40
2023-05-08T04:32:15.599Z,3.70
2023-05-08T04:35:18.700Z,3.80
2023-05-08T04:38:22.698Z,3.50
2023-05-08T04:41:26.236Z,3.63
2023-05-08T04:44:29.274Z,3.70
2023-05-08T04:47:31.996Z,3.63
2023-05-08T04:50:34.631Z,3.70
2023-05-08T04:53:38.579Z,4.13
2023-05-08T04:56:41.161Z,3.70
2023-05-08T04:59:43.716Z,3.73
2023-05-08T05:02:46.395Z,4.10
2023-05-08T05:05:49.005Z,3.77
2023-05-08T05:08:52.964Z,4.00
2023-05-08T05:11:56.944Z,3.87
2023-05-08T05:15:00.666Z,4.47
2023-05-08T05:18:03.712Z,4.20
2023-05-08T05:21:06.346Z,4.17
2023-05-08T05:24:10.383Z,3.93
2023-05-08T05:27:12.999Z,3.93
2023-05-08T05:30:16.019Z,4.00
2023-05-08T05:33:18.597Z,4.30
2023-05-08T05:36:21.216Z,4.30
2023-05-08T05:39:25.134Z,4.40
2023-05-08T05:42:27.774Z,4.40
2023-05-08T05:45:33.156Z,4.50
2023-05-08T05:48:36.241Z,4.53
2023-05-08T05:51:38.816Z,4.40
2023-05-08T05:54:42.781Z,4.30
2023-05-08T05:57:45.383Z,4.00
2023-05-08T06:00:48.332Z,3.90
2023-05-08T06:03:51.561Z,4.70
2023-05-08T06:06:54.198Z,4.70
2023-05-08T06:09:58.132Z,4.33
2023-05-08T06:13:00.730Z,4.70
2023-05-08T06:16:04.055Z,4.97
2023-05-08T06:19:06.662Z,4.73
2023-05-08T06:22:09.264Z,5.53
2023-05-08T06:25:13.414Z,4.90
2023-05-08T06:28:16.154Z,4.33
2023-05-08T06:31:19.178Z,5.17
2023-05-08T06:34:21.846Z,4.60
2023-05-08T06:37:24.416Z,4.70
2023-05-08T06:40:28.346Z,4.80
2023-05-08T06:43:31.071Z,4.80
2023-05-08T06:46:33.777Z,4.80
2023-05-08T06:49:37.062Z,4.90
2023-05-08T06:52:39.697Z,4.70
2023-05-08T06:55:45.301Z,6.70
2023-05-08T06:59:00.563Z,4.73
2023-05-08T07:02:10.767Z,4.77
2023-05-08T07:05:13.699Z,22.23
2023-05-08T07:08:16.560Z,18.30
2023-05-08T07:11:20.496Z,12.10
2023-05-08T07:14:23.111Z,12.33
2023-05-08T07:17:25.738Z,9.03
2023-05-08T07:20:28.514Z,6.63
2023-05-08T07:23:31.531Z,6.57
2023-05-08T07:26:35.625Z,5.17
2023-05-08T07:29:38.195Z,5.47
2023-05-08T07:32:40.858Z,5.20
2023-05-08T07:35:43.601Z,5.20
2023-05-08T07:38:46.216Z,5.30
2023-05-08T07:41:50.350Z,4.93
2023-05-08T07:44:55.273Z,5.37
2023-05-08T07:47:59.546Z,5.17
2023-05-08T07:51:02.132Z,4.70
2023-05-08T07:54:04.821Z,5.33
2023-05-08T07:57:08.768Z,5.20
2023-05-08T08:00:14.089Z,5.57
2023-05-08T08:03:17.299Z,5.40
2023-05-08T08:06:20.066Z,5.40
2023-05-08T08:09:22.668Z,5.37
2023-05-08T08:12:26.846Z,4.90
2023-05-08T08:15:29.503Z,5.23
2023-05-08T08:18:35.617Z,5.77
2023-05-08T08:21:43.191Z,5.47
2023-05-08T08:24:45.838Z,5.37
2023-05-08T08:27:49.783Z,5.13
2023-05-08T08:30:52.391Z,5.00
2023-05-08T08:33:55.005Z,5.63
2023-05-08T08:36:57.591Z,5.50
2023-05-08T08:40:01.379Z,5.60
2023-05-08T08:43:05.763Z,15.27
2023-05-08T08:46:13.065Z,14.77
2023-05-08T08:49:19.267Z,15.53
2023-05-08T08:52:31.645Z,6.50
2023-05-08T08:55:38.305Z,8.00
2023-05-08T08:58:50.893Z,8.87
2023-05-08T09:01:57.850Z,6.00
2023-05-08T09:05:01.085Z,7.80
2023-05-08T09:08:03.930Z,5.80
2023-05-08T09:11:06.585Z,6.13
2023-05-08T09:14:10.660Z,5.73
2023-05-08T09:17:13.269Z,5.70
2023-05-08T09:20:16.713Z,5.10
2023-05-08T09:23:19.761Z,5.23
2023-05-08T09:26:32.251Z,5.17
2023-05-08T09:29:36.196Z,5.03
2023-05-08T09:32:40.459Z,5.20
2023-05-08T09:35:43.630Z,6.57
2023-05-08T09:38:46.209Z,7.57
2023-05-08T09:41:58.759Z,6.23
2023-05-08T09:45:02.876Z,6.77
2023-05-08T09:48:05.901Z,6.73
2023-05-08T09:51:08.841Z,5.73
2023-05-08T09:54:18.943Z,5.40
2023-05-08T09:57:21.511Z,6.17
2023-05-08T10:00:26.398Z,5.03
2023-05-08T10:03:47.939Z,4.40
2023-05-08T10:06:58.856Z,4.07
2023-05-08T10:10:03.586Z,4.87
2023-05-08T10:13:06.176Z,4.00
2023-05-08T10:16:15.014Z,4.00
2023-05-08T10:19:19.534Z,5.33
2023-05-08T10:22:23.576Z,4.27
2023-05-08T10:25:27.062Z,4.10
2023-05-08T10:28:37.651Z,4.27
2023-05-08T10:31:43.911Z,4.23
2023-05-08T10:34:49.672Z,3.47
2023-05-08T10:37:54.711Z,3.53
2023-05-08T10:41:01.635Z,3.27
2023-05-08T10:44:04.665Z,2.83
2023-05-08T10:47:17.314Z,3.17
2023-05-08T10:50:43.496Z,3.53
2023-05-08T10:53:53.378Z,3.30
2023-05-08T10:57:08.954Z,2.57
2023-05-08T11:00:12.537Z,2.90
2023-05-08T11:03:30.422Z,2.53
2023-05-08T11:06:46.593Z,2.63
2023-05-08T11:09:49.376Z,2.63
2023-05-08T11:12:52.621Z,2.50
2023-05-08T11:15:55.427Z,2.30
2023-05-08T11:19:18.821Z,2.40
2023-05-08T11:22:27.179Z,2.40
2023-05-08T11:25:43.508Z,2.53
2023-05-08T11:28:57.898Z,2.67
2023-05-08T11:32:00.633Z,2.10
2023-05-08T11:35:06.952Z,3.17
2023-05-08T11:38:15.558Z,2.22
2023-05-08T11:41:22.626Z,2.30
2023-05-08T11:44:27.878Z,2.17
2023-05-08T11:47:37.276Z,2.55
2023-05-08T11:50:41.466Z,2.30
2023-05-08T11:53:45.129Z,2.13
2023-05-08T11:56:48.739Z,1.80
2023-05-08T11:59:51.915Z,2.20
2023-05-08T12:02:54.649Z,2.85
2023-05-08T12:06:00.461Z,4.30
2023-05-08T12:09:04.757Z,2.60
2023-05-08T12:12:07.697Z,2.67
2023-05-08T12:15:11.954Z,3.13
2023-05-08T12:18:14.846Z,2.20
2023-05-08T12:21:18.966Z,8.32
2023-05-08T12:24:23.560Z,8.18
2023-05-08T12:27:26.372Z,1.80
2023-05-08T12:30:29.242Z,10.85
2023-05-08T12:33:32.409Z,4.57
2023-05-08T12:36:37.090Z,2.47
2023-05-08T12:39:45.501Z,2.45
2023-05-08T12:42:50.762Z,4.65
2023-05-08T12:45:53.427Z,4.40
2023-05-08T12:49:02.580Z,2.38
2023-05-08T12:52:08.247Z,1.90
2023-05-08T12:55:24.361Z,2.28
2023-05-08T12:58:28.192Z,4.22
2023-05-08T13:01:30.809Z,3.85
2023-05-08T13:04:38.406Z,3.25
2023-05-08T13:07:42.590Z,2.42
2023-05-08T13:10:46.980Z,1.90
2023-05-08T13:13:49.556Z,1.98
2023-05-08T13:16:52.887Z,2.67
2023-05-08T13:19:55.609Z,4.85
2023-05-08T13:22:59.548Z,2.00
2023-05-08T13:26:02.179Z,2.13
2023-05-08T13:29:04.772Z,3.65
2023-05-08T13:32:07.454Z,1.95
2023-05-08T13:35:10.540Z,3.42
2023-05-08T13:38:14.494Z,3.28
2023-05-08T13:41:17.059Z,2.72
2023-05-08T13:44:19.660Z,2.17
2023-05-08T13:47:22.277Z,2.20
2023-05-08T13:50:24.917Z,2.22
2023-05-08T13:53:28.843Z,7.43
2023-05-08T13:56:31.527Z,1.60
2023-05-08T13:59:34.090Z,2.38
2023-05-08T14:02:37.920Z,2.70
2023-05-08T14:05:40.750Z,3.08
2023-05-08T14:08:47.173Z,9.27
2023-05-08T14:11:51.375Z,9.93
2023-05-08T14:14:53.966Z,4.95
2023-05-08T14:17:56.566Z,5.03
2023-05-08T14:20:59.212Z,2.92
2023-05-08T14:24:03.280Z,6.03
2023-05-08T14:27:06.062Z,3.88
2023-05-08T14:30:09.940Z,6.68
2023-05-08T14:33:12.601Z,4.85
2023-05-08T14:36:15.395Z,5.43
2023-05-08T14:39:19.314Z,5.35
2023-05-08T14:42:24.910Z,2.28
2023-05-08T14:45:27.599Z,4.13
2023-05-08T14:48:30.183Z,4.28
2023-05-08T14:51:32.902Z,22.70
2023-05-08T14:54:37.128Z,1.60
2023-05-08T14:57:39.848Z,1.45
2023-05-08T15:00:42.402Z,1.90
2023-05-08T15:03:47.270Z,1.50
2023-05-08T15:06:50.080Z,1.50
2023-05-08T15:09:55.149Z,1.50
2023-05-08T15:12:57.872Z,1.60
2023-05-08T15:16:00.457Z,1.37
2023-05-08T15:19:03.028Z,1.57
2023-05-08T15:22:05.735Z,1.40
2023-05-08T15:25:10.002Z,1.20
2023-05-08T15:28:12.599Z,1.53
2023-05-08T15:31:15.298Z,1.40
2023-05-08T15:34:17.975Z,1.40
2023-05-08T15:37:20.602Z,1.57
2023-05-08T15:40:24.580Z,1.33
2023-05-08T15:43:27.154Z,1.50
2023-05-08T15:46:29.710Z,1.60
2023-05-08T15:49:32.310Z,1.50
2023-05-08T15:52:34.893Z,1.20
2023-05-08T15:55:39.527Z,1.40
2023-05-08T15:58:42.116Z,1.33
2023-05-08T16:01:46.705Z,1.70
2023-05-08T16:04:49.469Z,1.13
2023-05-08T16:07:52.039Z,1.43
2023-05-08T16:10:56.571Z,1.40
2023-05-08T16:13:59.776Z,1.30
2023-05-08T16:17:02.357Z,1.40
2023-05-08T16:20:05.571Z,1.23
2023-05-08T16:23:08.237Z,1.20
2023-05-08T16:26:13.093Z,1.53
2023-05-08T16:29:15.690Z,1.40
2023-05-08T16:32:18.271Z,1.57
2023-05-08T16:35:20.989Z,1.40
2023-05-08T16:38:23.586Z,1.90
2023-05-08T16:41:27.817Z,1.30
2023-05-08T16:44:30.569Z,1.40
2023-05-08T16:47:33.349Z,1.60
2023-05-08T16:50:36.018Z,1.30
2023-05-08T16:53:38.602Z,1.60
2023-05-08T16:56:42.555Z,1.57
2023-05-08T16:59:45.309Z,1.23
2023-05-08T17:02:48.031Z,1.50
2023-05-08T17:05:50.674Z,1.47
2023-05-08T17:08:53.317Z,1.20
2023-05-08T17:11:58.122Z,1.40
2023-05-08T17:15:00.860Z,1.30
2023-05-08T17:18:03.530Z,1.30
2023-05-08T17:21:06.242Z,5.67
2023-05-08T17:24:09.626Z,2.50
2023-05-08T17:27:13.659Z,3.70
2023-05-08T17:30:16.976Z,2.73
2023-05-08T17:33:20.928Z,7.23
2023-05-08T17:36:23.555Z,7.67
2023-05-08T17:39:26.180Z,6.30
2023-05-08T17:42:30.127Z,3.03
2023-05-08T17:45:32.876Z,1.83
2023-05-08T17:48:35.844Z,2.40
2023-05-08T17:51:38.561Z,2.30
2023-05-08T17:54:41.153Z,1.70
2023-05-08T17:57:45.253Z,1.90
2023-05-08T18:00:47.858Z,2.90
2023-05-08T18:03:50.449Z,1.40
2023-05-08T18:06:53.052Z,1.50
2023-05-08T18:09:55.720Z,3.23
2023-05-08T18:12:59.818Z,3.00
2023-05-08T18:16:02.509Z,2.80
2023-05-08T18:19:05.138Z,2.23
2023-05-08T18:22:08.089Z,1.77
2023-05-08T18:25:11.038Z,1.60
2023-05-08T18:28:14.958Z,1.30
2023-05-08T18:31:17.583Z,1.87
2023-05-08T18:34:20.259Z,1.50
2023-05-08T18:37:23.053Z,1.73
2023-05-08T18:40:25.714Z,1.73
2023-05-08T18:43:29.674Z,1.80
2023-05-08T18:46:32.875Z,1.90
2023-05-08T18:49:35.654Z,1.87
2023-05-08T18:52:38.231Z,1.67
2023-05-08T18:55:41.638Z,1.77
2023-05-08T18:58:46.375Z,1.97
2023-05-08T19:01:49.248Z,2.20
2023-05-08T19:04:51.946Z,2.57
2023-05-08T19:07:54.552Z,1.80
2023-05-08T19:10:57.154Z,2.07
2023-05-08T19:14:01.169Z,1.60
2023-05-08T19:17:03.754Z,2.07
2023-05-08T19:20:07.412Z,1.90
2023-05-08T19:23:10.021Z,2.00
2023-05-08T19:26:12.591Z,2.07
2023-05-08T19:29:16.596Z,11.63
2023-05-08T19:32:19.228Z,2.90
2023-05-08T19:35:21.947Z,2.10
2023-05-08T19:38:24.536Z,3.90
2023-05-08T19:41:27.277Z,8.77
2023-05-08T19:44:32.568Z,3.90
2023-05-08T19:47:35.169Z,2.17
2023-05-08T19:50:37.802Z,2.87
2023-05-08T19:53:40.672Z,1.87
2023-05-08T19:56:43.239Z,2.00
2023-05-08T19:59:47.221Z,3.27
2023-05-08T20:02:49.841Z,2.20
2023-05-08T20:05:52.730Z,2.10
2023-05-08T20:08:55.720Z,2.07
2023-05-08T20:11:58.339Z,2.00
2023-05-08T20:15:02.256Z,2.17
2023-05-08T20:18:05.062Z,1.83
2023-05-08T20:21:07.720Z,2.10
2023-05-08T20:24:10.662Z,2.00
2023-05-08T20:27:13.292Z,1.80
2023-05-08T20:30:17.315Z,1.73
2023-05-08T20:33:20.653Z,1.90
2023-05-08T20:36:23.231Z,1.73
2023-05-08T20:39:25.820Z,1.83
2023-05-08T20:42:28.379Z,1.83
2023-05-08T20:45:32.379Z,2.03
2023-05-08T20:48:35.039Z,2.00
2023-05-08T20:51:37.646Z,2.00
2023-05-08T20:54:40.292Z,2.03
2023-05-08T20:57:42.896Z,1.90
2023-05-08T21:00:46.840Z,1.97
2023-05-08T21:03:49.425Z,1.80
2023-05-08T21:06:52.380Z,1.80
2023-05-08T21:09:55.058Z,1.80
2023-05-08T21:12:57.681Z,1.70
2023-05-08T21:16:01.663Z,1.60
2023-05-08T21:19:04.266Z,1.80
2023-05-08T21:22:07.509Z,2.30
2023-05-08T21:25:12.649Z,1.80
2023-05-08T21:28:17.688Z,1.70
2023-05-08T21:31:22.319Z,1.77
2023-05-08T21:34:24.924Z,1.90
2023-05-08T21:37:27.652Z,1.90
2023-05-08T21:40:30.444Z,1.70
2023-05-08T21:43:33.154Z,1.93
2023-05-08T21:46:37.209Z,1.80
2023-05-08T21:49:39.855Z,1.63
2023-05-08T21:52:42.433Z,2.00
2023-05-08T21:55:45.024Z,1.57
2023-05-08T21:58:48.941Z,1.70
2023-05-08T22:01:52.922Z,1.80
2023-05-08T22:04:55.546Z,1.90
2023-05-08T22:07:58.185Z,2.17
2023-05-08T22:11:00.934Z,1.83
2023-05-08T22:14:03.503Z,1.90
2023-05-08T22:17:07.483Z,1.90
2023-05-08T22:20:14.246Z,1.83
2023-05-08T22:23:16.858Z,1.90
2023-05-08T22:26:19.443Z,2.00
2023-05-08T22:29:22.073Z,1.97
2023-05-08T22:32:26.115Z,1.70
2023-05-08T22:35:28.740Z,2.03
2023-05-08T22:38:31.353Z,1.80
2023-05-08T22:41:35.089Z,1.93
2023-05-08T22:44:37.810Z,8.23
2023-05-08T22:47:42.080Z,5.17
2023-05-08T22:50:44.933Z,4.67
2023-05-08T22:53:48.421Z,3.67
2023-05-08T22:56:51.061Z,3.90
2023-05-08T22:59:53.682Z,2.10
2023-05-08T23:02:57.832Z,1.93
2023-05-08T23:06:00.451Z,2.13
2023-05-08T23:09:04.227Z,2.43
2023-05-08T23:12:07.673Z,2.10
2023-05-08T23:15:12.074Z,1.90
2023-05-08T23:18:16.092Z,2.10
2023-05-08T23:21:18.705Z,2.10
2023-05-08T23:24:21.280Z,2.20
2023-05-08T23:27:23.864Z,2.23
2023-05-08T23:30:27.261Z,2.00
2023-05-08T23:33:31.261Z,2.17
2023-05-08T23:36:34.031Z,2.03
2023-05-08T23:39:41.127Z,2.20
2023-05-08T23:42:44.287Z,2.20
2023-05-08T23:45:46.869Z,2.20
2023-05-08T23:48:50.836Z,2.13
2023-05-08T23:51:53.474Z,2.07
2023-05-08T23:54:56.086Z,2.10
2023-05-08T23:57:58.647Z,2.10
